sensor_id;sensor_type;location;lat;lon;timestamp;P1;durP1;ratioP1;P2;durP2;ratioP2
59872;SDS011;50750;51.636;4.948;2022-08-01T00:00:29;3.70;;;2.30;;
59872;SDS011;50750;51.636;4.948;2022-08-01T00:03:06;4.00;;;2.40;;
59872;SDS011;50750;51.636;4.948;2022-08-01T00:05:32;4.50;;;2.50;;
59872;SDS011;50750;51.636;4.948;2022-08-01T00:07:59;3.80;;;2.40;;
59872;SDS011;50750;51.636;4.948;2022-08-01T00:10:25;3.80;;;2.40;;
59872;SDS011;50750;51.636;4.948;2022-08-01T00:12:53;4.50;;;2.20;;
59872;SDS011;50750;51.636;4.948;2022-08-01T00:15:19;4.50;;;2.40;;
59872;SDS011;50750;51.636;4.948;2022-08-01T00:17:46;3.70;;;2.20;;
59872;SDS011;50750;51.636;4.948;2022-08-01T00:20:13;5.10;;;2.50;;
59872;SDS011;50750;51.636;4.948;2022-08-01T00:22:40;4.30;;;2.50;;
59872;SDS011;50750;51.636;4.948;2022-08-01T00:25:07;3.30;;;2.30;;
59872;SDS011;50750;51.636;4.948;2022-08-01T00:27:34;3.50;;;2.30;;
59872;SDS011;50750;51.636;4.948;2022-08-01T00:30:00;3.50;;;2.50;;
59872;SDS011;50750;51.636;4.948;2022-08-01T00:32:27;4.60;;;2.60;;
59872;SDS011;50750;51.636;4.948;2022-08-01T00:34:57;3.70;;;2.50;;
59872;SDS011;50750;51.636;4.948;2022-08-01T00:37:23;4.60;;;2.30;;
59872;SDS011;50750;51.636;4.948;2022-08-01T00:39:50;4.20;;;2.10;;
59872;SDS011;50750;51.636;4.948;2022-08-01T00:42:16;4.20;;;2.60;;
59872;SDS011;50750;51.636;4.948;2022-08-01T00:44:43;4.20;;;2.50;;
59872;SDS011;50750;51.636;4.948;2022-08-01T00:47:10;3.20;;;2.20;;
59872;SDS011;50750;51.636;4.948;2022-08-01T00:49:36;3.60;;;2.40;;
59872;SDS011;50750;51.636;4.948;2022-08-01T00:52:03;3.70;;;2.30;;
59872;SDS011;50750;51.636;4.948;2022-08-01T00:54:32;4.20;;;2.20;;
59872;SDS011;50750;51.636;4.948;2022-08-01T00:56:59;3.30;;;2.20;;
59872;SDS011;50750;51.636;4.948;2022-08-01T00:59:26;3.50;;;2.20;;
59872;SDS011;50750;51.636;4.948;2022-08-01T01:01:52;3.60;;;2.30;;
59872;SDS011;50750;51.636;4.948;2022-08-01T01:04:19;3.70;;;2.20;;
59872;SDS011;50750;51.636;4.948;2022-08-01T01:12:19;3.40;;;2.40;;
59872;SDS011;50750;51.636;4.948;2022-08-01T01:17:54;3.10;;;2.20;;
59872;SDS011;50750;51.636;4.948;2022-08-01T01:20:32;3.50;;;2.20;;
59872;SDS011;50750;51.636;4.948;2022-08-01T01:23:10;3.40;;;2.40;;
59872;SDS011;50750;51.636;4.948;2022-08-01T01:25:56;4.30;;;2.20;;
59872;SDS011;50750;51.636;4.948;2022-08-01T01:28:59;4.20;;;2.20;;
59872;SDS011;50750;51.636;4.948;2022-08-01T01:31:33;3.90;;;2.20;;
59872;SDS011;50750;51.636;4.948;2022-08-01T01:34:09;3.60;;;2.20;;
59872;SDS011;50750;51.636;4.948;2022-08-01T01:36:38;3.40;;;2.30;;
59872;SDS011;50750;51.636;4.948;2022-08-01T01:39:06;3.40;;;2.20;;
59872;SDS011;50750;51.636;4.948;2022-08-01T01:41:34;3.50;;;2.00;;
59872;SDS011;50750;51.636;4.948;2022-08-01T01:44:04;3.00;;;2.10;;
59872;SDS011;50750;51.636;4.948;2022-08-01T01:46:32;3.10;;;2.10;;
59872;SDS011;50750;51.636;4.948;2022-08-01T01:49:00;3.40;;;2.10;;
59872;SDS011;50750;51.636;4.948;2022-08-01T01:51:27;3.30;;;2.00;;
59872;SDS011;50750;51.636;4.948;2022-08-01T01:53:55;3.40;;;2.20;;
59872;SDS011;50750;51.636;4.948;2022-08-01T01:56:23;3.20;;;2.10;;
59872;SDS011;50750;51.636;4.948;2022-08-01T01:58:53;3.30;;;2.10;;
59872;SDS011;50750;51.636;4.948;2022-08-01T02:01:24;3.80;;;2.30;;
59872;SDS011;50750;51.636;4.948;2022-08-01T02:03:52;3.30;;;1.90;;
59872;SDS011;50750;51.636;4.948;2022-08-01T02:06:21;3.00;;;2.20;;
59872;SDS011;50750;51.636;4.948;2022-08-01T02:08:48;3.70;;;2.40;;
59872;SDS011;50750;51.636;4.948;2022-08-01T02:11:16;3.90;;;2.30;;
59872;SDS011;50750;51.636;4.948;2022-08-01T02:13:48;4.80;;;2.40;;
59872;SDS011;50750;51.636;4.948;2022-08-01T02:16:21;3.10;;;2.00;;
59872;SDS011;50750;51.636;4.948;2022-08-01T02:18:50;3.40;;;2.20;;
59872;SDS011;50750;51.636;4.948;2022-08-01T02:21:19;3.40;;;2.20;;
59872;SDS011;50750;51.636;4.948;2022-08-01T02:23:53;3.00;;;2.10;;
59872;SDS011;50750;51.636;4.948;2022-08-01T02:26:26;3.60;;;2.10;;
59872;SDS011;50750;51.636;4.948;2022-08-01T02:28:56;3.40;;;2.20;;
59872;SDS011;50750;51.636;4.948;2022-08-01T02:31:25;3.30;;;2.10;;
59872;SDS011;50750;51.636;4.948;2022-08-01T02:34:02;4.10;;;2.30;;
59872;SDS011;50750;51.636;4.948;2022-08-01T02:36:35;3.50;;;2.10;;
59872;SDS011;50750;51.636;4.948;2022-08-01T02:39:03;3.50;;;2.30;;
59872;SDS011;50750;51.636;4.948;2022-08-01T02:41:39;2.80;;;1.90;;
59872;SDS011;50750;51.636;4.948;2022-08-01T02:44:09;4.20;;;2.10;;
59872;SDS011;50750;51.636;4.948;2022-08-01T02:49:06;3.30;;;2.10;;
59872;SDS011;50750;51.636;4.948;2022-08-01T02:51:45;3.30;;;2.10;;
59872;SDS011;50750;51.636;4.948;2022-08-01T02:54:14;3.90;;;2.00;;
59872;SDS011;50750;51.636;4.948;2022-08-01T02:56:44;2.90;;;2.00;;
59872;SDS011;50750;51.636;4.948;2022-08-01T02:59:13;3.40;;;2.20;;
59872;SDS011;50750;51.636;4.948;2022-08-01T03:01:44;2.60;;;1.80;;
59872;SDS011;50750;51.636;4.948;2022-08-01T03:04:12;3.00;;;2.10;;
59872;SDS011;50750;51.636;4.948;2022-08-01T03:06:41;3.00;;;2.10;;
59872;SDS011;50750;51.636;4.948;2022-08-01T03:09:08;3.40;;;2.20;;
59872;SDS011;50750;51.636;4.948;2022-08-01T03:11:36;2.80;;;2.10;;
59872;SDS011;50750;51.636;4.948;2022-08-01T03:14:06;3.60;;;2.20;;
59872;SDS011;50750;51.636;4.948;2022-08-01T03:19:04;2.80;;;2.00;;
59872;SDS011;50750;51.636;4.948;2022-08-01T03:21:32;3.10;;;2.10;;
59872;SDS011;50750;51.636;4.948;2022-08-01T03:24:01;2.90;;;2.00;;
59872;SDS011;50750;51.636;4.948;2022-08-01T03:26:31;3.30;;;2.10;;
59872;SDS011;50750;51.636;4.948;2022-08-01T03:31:36;2.70;;;2.00;;
59872;SDS011;50750;51.636;4.948;2022-08-01T03:34:04;2.70;;;1.90;;
59872;SDS011;50750;51.636;4.948;2022-08-01T03:36:32;3.20;;;1.80;;
59872;SDS011;50750;51.636;4.948;2022-08-01T03:39:06;3.80;;;2.10;;
59872;SDS011;50750;51.636;4.948;2022-08-01T03:41:37;3.00;;;2.10;;
59872;SDS011;50750;51.636;4.948;2022-08-01T03:44:09;3.60;;;2.30;;
59872;SDS011;50750;51.636;4.948;2022-08-01T03:46:56;3.00;;;1.80;;
59872;SDS011;50750;51.636;4.948;2022-08-01T03:49:26;2.70;;;1.90;;
59872;SDS011;50750;51.636;4.948;2022-08-01T03:51:57;2.50;;;1.80;;
59872;SDS011;50750;51.636;4.948;2022-08-01T03:54:28;3.70;;;2.00;;
59872;SDS011;50750;51.636;4.948;2022-08-01T03:56:59;3.40;;;2.10;;
59872;SDS011;50750;51.636;4.948;2022-08-01T03:59:28;3.10;;;2.00;;
59872;SDS011;50750;51.636;4.948;2022-08-01T04:01:56;3.40;;;2.10;;
59872;SDS011;50750;51.636;4.948;2022-08-01T04:04:24;3.40;;;2.20;;
59872;SDS011;50750;51.636;4.948;2022-08-01T04:06:51;3.10;;;2.10;;
59872;SDS011;50750;51.636;4.948;2022-08-01T04:09:20;3.70;;;2.10;;
59872;SDS011;50750;51.636;4.948;2022-08-01T04:11:48;3.20;;;2.00;;
59872;SDS011;50750;51.636;4.948;2022-08-01T04:14:15;3.10;;;2.00;;
59872;SDS011;50750;51.636;4.948;2022-08-01T04:16:42;3.00;;;2.00;;
59872;SDS011;50750;51.636;4.948;2022-08-01T04:19:08;3.00;;;2.00;;
59872;SDS011;50750;51.636;4.948;2022-08-01T04:21:35;3.40;;;2.10;;
59872;SDS011;50750;51.636;4.948;2022-08-01T04:24:10;3.80;;;2.10;;
59872;SDS011;50750;51.636;4.948;2022-08-01T04:26:41;2.80;;;1.80;;
59872;SDS011;50750;51.636;4.948;2022-08-01T04:29:11;2.80;;;1.90;;
59872;SDS011;50750;51.636;4.948;2022-08-01T04:31:43;2.70;;;1.80;;
59872;SDS011;50750;51.636;4.948;2022-08-01T04:34:13;2.90;;;2.00;;
59872;SDS011;50750;51.636;4.948;2022-08-01T04:36:42;2.70;;;1.90;;
59872;SDS011;50750;51.636;4.948;2022-08-01T04:39:11;3.10;;;2.00;;
59872;SDS011;50750;51.636;4.948;2022-08-01T04:41:41;2.80;;;1.80;;
59872;SDS011;50750;51.636;4.948;2022-08-01T04:44:09;4.40;;;1.70;;
59872;SDS011;50750;51.636;4.948;2022-08-01T04:46:35;4.30;;;2.20;;
59872;SDS011;50750;51.636;4.948;2022-08-01T04:49:05;2.60;;;1.90;;
59872;SDS011;50750;51.636;4.948;2022-08-01T04:53:59;2.80;;;2.00;;
59872;SDS011;50750;51.636;4.948;2022-08-01T04:56:27;3.40;;;2.10;;
59872;SDS011;50750;51.636;4.948;2022-08-01T04:58:53;2.70;;;1.70;;
59872;SDS011;50750;51.636;4.948;2022-08-01T05:01:38;3.00;;;1.90;;
59872;SDS011;50750;51.636;4.948;2022-08-01T05:04:05;2.80;;;1.90;;
59872;SDS011;50750;51.636;4.948;2022-08-01T05:06:31;2.80;;;1.80;;
59872;SDS011;50750;51.636;4.948;2022-08-01T05:08:58;3.20;;;2.00;;
59872;SDS011;50750;51.636;4.948;2022-08-01T05:11:24;3.00;;;2.20;;
59872;SDS011;50750;51.636;4.948;2022-08-01T05:13:51;3.00;;;2.10;;
59872;SDS011;50750;51.636;4.948;2022-08-01T05:16:17;2.50;;;1.70;;
59872;SDS011;50750;51.636;4.948;2022-08-01T05:18:44;2.80;;;1.60;;
59872;SDS011;50750;51.636;4.948;2022-08-01T05:21:10;3.00;;;1.70;;
59872;SDS011;50750;51.636;4.948;2022-08-01T05:23:37;2.70;;;1.70;;
59872;SDS011;50750;51.636;4.948;2022-08-01T05:26:04;3.40;;;1.90;;
59872;SDS011;50750;51.636;4.948;2022-08-01T05:28:30;2.90;;;1.90;;
59872;SDS011;50750;51.636;4.948;2022-08-01T05:30:57;2.60;;;1.70;;
59872;SDS011;50750;51.636;4.948;2022-08-01T05:33:24;2.70;;;1.80;;
59872;SDS011;50750;51.636;4.948;2022-08-01T05:35:50;3.00;;;1.90;;
59872;SDS011;50750;51.636;4.948;2022-08-01T05:38:17;2.70;;;1.70;;
59872;SDS011;50750;51.636;4.948;2022-08-01T05:40:43;2.60;;;1.60;;
59872;SDS011;50750;51.636;4.948;2022-08-01T05:43:10;3.10;;;2.10;;
59872;SDS011;50750;51.636;4.948;2022-08-01T05:45:37;2.30;;;1.60;;
59872;SDS011;50750;51.636;4.948;2022-08-01T05:48:04;2.90;;;1.70;;
59872;SDS011;50750;51.636;4.948;2022-08-01T05:50:31;2.90;;;1.80;;
59872;SDS011;50750;51.636;4.948;2022-08-01T05:52:59;2.80;;;1.70;;
59872;SDS011;50750;51.636;4.948;2022-08-01T05:55:25;2.70;;;1.70;;
59872;SDS011;50750;51.636;4.948;2022-08-01T05:57:52;3.10;;;1.80;;
59872;SDS011;50750;51.636;4.948;2022-08-01T06:00:19;2.90;;;1.90;;
59872;SDS011;50750;51.636;4.948;2022-08-01T06:02:45;2.70;;;1.60;;
59872;SDS011;50750;51.636;4.948;2022-08-01T06:05:12;2.50;;;1.70;;
59872;SDS011;50750;51.636;4.948;2022-08-01T06:07:38;2.50;;;1.70;;
59872;SDS011;50750;51.636;4.948;2022-08-01T06:10:06;2.50;;;1.60;;
59872;SDS011;50750;51.636;4.948;2022-08-01T06:12:34;2.90;;;1.70;;
59872;SDS011;50750;51.636;4.948;2022-08-01T06:15:01;3.40;;;1.80;;
59872;SDS011;50750;51.636;4.948;2022-08-01T06:17:31;3.30;;;1.90;;
59872;SDS011;50750;51.636;4.948;2022-08-01T06:19:58;2.70;;;1.80;;
59872;SDS011;50750;51.636;4.948;2022-08-01T06:22:25;2.50;;;1.70;;
59872;SDS011;50750;51.636;4.948;2022-08-01T06:24:52;2.70;;;1.60;;
59872;SDS011;50750;51.636;4.948;2022-08-01T06:27:19;2.30;;;1.60;;
59872;SDS011;50750;51.636;4.948;2022-08-01T06:29:45;1.90;;;1.20;;
59872;SDS011;50750;51.636;4.948;2022-08-01T06:32:12;2.50;;;1.60;;
59872;SDS011;50750;51.636;4.948;2022-08-01T06:34:39;2.30;;;1.40;;
59872;SDS011;50750;51.636;4.948;2022-08-01T06:37:05;2.80;;;1.70;;
59872;SDS011;50750;51.636;4.948;2022-08-01T06:39:32;2.40;;;1.50;;
59872;SDS011;50750;51.636;4.948;2022-08-01T06:41:58;2.30;;;1.30;;
59872;SDS011;50750;51.636;4.948;2022-08-01T06:44:25;2.50;;;1.40;;
59872;SDS011;50750;51.636;4.948;2022-08-01T06:46:51;3.40;;;1.80;;
59872;SDS011;50750;51.636;4.948;2022-08-01T06:49:18;2.60;;;1.60;;
59872;SDS011;50750;51.636;4.948;2022-08-01T06:51:44;2.70;;;1.60;;
59872;SDS011;50750;51.636;4.948;2022-08-01T06:54:11;2.70;;;1.60;;
59872;SDS011;50750;51.636;4.948;2022-08-01T06:56:37;2.30;;;1.50;;
59872;SDS011;50750;51.636;4.948;2022-08-01T06:59:04;2.40;;;1.50;;
59872;SDS011;50750;51.636;4.948;2022-08-01T07:01:30;2.10;;;1.20;;
59872;SDS011;50750;51.636;4.948;2022-08-01T07:03:57;2.20;;;1.40;;
59872;SDS011;50750;51.636;4.948;2022-08-01T07:06:24;2.40;;;1.40;;
59872;SDS011;50750;51.636;4.948;2022-08-01T07:08:51;2.40;;;1.40;;
59872;SDS011;50750;51.636;4.948;2022-08-01T07:11:19;2.20;;;1.30;;
59872;SDS011;50750;51.636;4.948;2022-08-01T07:13:46;2.70;;;1.40;;
59872;SDS011;50750;51.636;4.948;2022-08-01T07:16:13;2.50;;;1.40;;
59872;SDS011;50750;51.636;4.948;2022-08-01T07:18:41;2.70;;;1.50;;
59872;SDS011;50750;51.636;4.948;2022-08-01T07:21:08;2.20;;;1.30;;
59872;SDS011;50750;51.636;4.948;2022-08-01T07:23:34;2.70;;;1.50;;
59872;SDS011;50750;51.636;4.948;2022-08-01T07:26:02;2.10;;;1.30;;
59872;SDS011;50750;51.636;4.948;2022-08-01T07:28:30;2.30;;;1.40;;
59872;SDS011;50750;51.636;4.948;2022-08-01T07:30:56;2.30;;;1.40;;
59872;SDS011;50750;51.636;4.948;2022-08-01T07:33:23;2.20;;;1.40;;
59872;SDS011;50750;51.636;4.948;2022-08-01T07:35:49;1.90;;;1.30;;
59872;SDS011;50750;51.636;4.948;2022-08-01T07:38:16;2.00;;;1.20;;
59872;SDS011;50750;51.636;4.948;2022-08-01T07:40:43;2.10;;;1.30;;
59872;SDS011;50750;51.636;4.948;2022-08-01T07:43:10;2.50;;;1.50;;
59872;SDS011;50750;51.636;4.948;2022-08-01T07:45:37;2.10;;;1.20;;
59872;SDS011;50750;51.636;4.948;2022-08-01T07:48:04;2.10;;;1.30;;
59872;SDS011;50750;51.636;4.948;2022-08-01T07:50:31;2.70;;;1.50;;
59872;SDS011;50750;51.636;4.948;2022-08-01T07:52:58;2.20;;;1.30;;
59872;SDS011;50750;51.636;4.948;2022-08-01T07:55:26;2.20;;;1.40;;
59872;SDS011;50750;51.636;4.948;2022-08-01T07:57:52;2.70;;;1.40;;
59872;SDS011;50750;51.636;4.948;2022-08-01T08:00:19;2.00;;;1.30;;
59872;SDS011;50750;51.636;4.948;2022-08-01T08:02:46;2.10;;;1.10;;
59872;SDS011;50750;51.636;4.948;2022-08-01T08:05:12;2.10;;;1.30;;
59872;SDS011;50750;51.636;4.948;2022-08-01T08:07:39;2.40;;;1.40;;
59872;SDS011;50750;51.636;4.948;2022-08-01T08:10:06;2.10;;;1.30;;
59872;SDS011;50750;51.636;4.948;2022-08-01T08:12:33;1.90;;;1.20;;
59872;SDS011;50750;51.636;4.948;2022-08-01T08:14:59;1.90;;;1.20;;
59872;SDS011;50750;51.636;4.948;2022-08-01T08:17:27;2.00;;;1.20;;
59872;SDS011;50750;51.636;4.948;2022-08-01T08:19:53;2.00;;;1.30;;
59872;SDS011;50750;51.636;4.948;2022-08-01T08:22:20;1.80;;;1.10;;
59872;SDS011;50750;51.636;4.948;2022-08-01T08:24:46;1.80;;;1.10;;
59872;SDS011;50750;51.636;4.948;2022-08-01T08:27:13;1.90;;;1.10;;
59872;SDS011;50750;51.636;4.948;2022-08-01T08:29:41;2.40;;;1.30;;
59872;SDS011;50750;51.636;4.948;2022-08-01T08:32:08;1.70;;;1.00;;
59872;SDS011;50750;51.636;4.948;2022-08-01T08:34:34;1.40;;;0.90;;
59872;SDS011;50750;51.636;4.948;2022-08-01T08:37:01;2.10;;;1.40;;
59872;SDS011;50750;51.636;4.948;2022-08-01T08:39:27;2.20;;;1.30;;
59872;SDS011;50750;51.636;4.948;2022-08-01T08:41:59;2.10;;;1.10;;
59872;SDS011;50750;51.636;4.948;2022-08-01T08:44:28;2.00;;;1.20;;
59872;SDS011;50750;51.636;4.948;2022-08-01T08:46:54;2.00;;;1.20;;
59872;SDS011;50750;51.636;4.948;2022-08-01T08:49:25;2.50;;;1.50;;
59872;SDS011;50750;51.636;4.948;2022-08-01T08:51:57;2.10;;;1.20;;
59872;SDS011;50750;51.636;4.948;2022-08-01T08:54:25;2.10;;;1.10;;
59872;SDS011;50750;51.636;4.948;2022-08-01T08:56:53;2.00;;;1.10;;
59872;SDS011;50750;51.636;4.948;2022-08-01T08:59:21;1.80;;;1.10;;
59872;SDS011;50750;51.636;4.948;2022-08-01T09:01:51;2.20;;;1.10;;
59872;SDS011;50750;51.636;4.948;2022-08-01T09:04:38;2.30;;;1.40;;
59872;SDS011;50750;51.636;4.948;2022-08-01T09:07:06;2.00;;;1.10;;
59872;SDS011;50750;51.636;4.948;2022-08-01T09:09:34;2.20;;;1.10;;
59872;SDS011;50750;51.636;4.948;2022-08-01T09:12:01;1.70;;;1.00;;
59872;SDS011;50750;51.636;4.948;2022-08-01T09:14:27;2.10;;;1.10;;
59872;SDS011;50750;51.636;4.948;2022-08-01T09:17:00;2.00;;;1.10;;
59872;SDS011;50750;51.636;4.948;2022-08-01T09:19:40;3.20;;;1.10;;
59872;SDS011;50750;51.636;4.948;2022-08-01T09:22:14;1.80;;;1.10;;
59872;SDS011;50750;51.636;4.948;2022-08-01T09:25:04;1.90;;;1.20;;
59872;SDS011;50750;51.636;4.948;2022-08-01T09:27:35;1.90;;;1.00;;
59872;SDS011;50750;51.636;4.948;2022-08-01T09:30:24;2.00;;;1.30;;
59872;SDS011;50750;51.636;4.948;2022-08-01T09:32:58;2.10;;;1.10;;
59872;SDS011;50750;51.636;4.948;2022-08-01T09:35:30;2.20;;;1.20;;
59872;SDS011;50750;51.636;4.948;2022-08-01T09:38:11;2.50;;;1.30;;
59872;SDS011;50750;51.636;4.948;2022-08-01T09:43:14;2.20;;;1.30;;
59872;SDS011;50750;51.636;4.948;2022-08-01T09:45:41;2.10;;;1.20;;
59872;SDS011;50750;51.636;4.948;2022-08-01T09:48:07;2.20;;;1.20;;
59872;SDS011;50750;51.636;4.948;2022-08-01T09:50:38;2.50;;;1.20;;
59872;SDS011;50750;51.636;4.948;2022-08-01T09:53:08;2.30;;;1.10;;
59872;SDS011;50750;51.636;4.948;2022-08-01T09:55:38;2.20;;;1.20;;
59872;SDS011;50750;51.636;4.948;2022-08-01T09:58:06;2.80;;;1.30;;
59872;SDS011;50750;51.636;4.948;2022-08-01T10:00:34;1.80;;;1.00;;
59872;SDS011;50750;51.636;4.948;2022-08-01T10:03:23;2.40;;;1.10;;
59872;SDS011;50750;51.636;4.948;2022-08-01T10:05:49;2.40;;;1.20;;
59872;SDS011;50750;51.636;4.948;2022-08-01T10:08:17;2.50;;;1.20;;
59872;SDS011;50750;51.636;4.948;2022-08-01T10:13:38;2.40;;;1.10;;
59872;SDS011;50750;51.636;4.948;2022-08-01T10:16:06;3.10;;;1.30;;
59872;SDS011;50750;51.636;4.948;2022-08-01T10:18:34;2.50;;;1.10;;
59872;SDS011;50750;51.636;4.948;2022-08-01T10:21:02;2.50;;;1.30;;
59872;SDS011;50750;51.636;4.948;2022-08-01T10:23:34;2.30;;;1.00;;
59872;SDS011;50750;51.636;4.948;2022-08-01T10:26:02;2.70;;;1.20;;
59872;SDS011;50750;51.636;4.948;2022-08-01T10:28:31;3.00;;;1.40;;
59872;SDS011;50750;51.636;4.948;2022-08-01T10:31:01;2.20;;;1.20;;
59872;SDS011;50750;51.636;4.948;2022-08-01T10:33:29;2.40;;;1.30;;
59872;SDS011;50750;51.636;4.948;2022-08-01T10:35:56;2.50;;;1.10;;
59872;SDS011;50750;51.636;4.948;2022-08-01T10:38:23;2.40;;;1.10;;
59872;SDS011;50750;51.636;4.948;2022-08-01T10:40:50;2.40;;;1.30;;
59872;SDS011;50750;51.636;4.948;2022-08-01T10:45:45;2.20;;;1.20;;
59872;SDS011;50750;51.636;4.948;2022-08-01T10:48:14;2.20;;;1.20;;
59872;SDS011;50750;51.636;4.948;2022-08-01T10:50:48;2.70;;;1.30;;
59872;SDS011;50750;51.636;4.948;2022-08-01T10:53:21;2.40;;;1.10;;
59872;SDS011;50750;51.636;4.948;2022-08-01T10:58:23;3.20;;;1.10;;
59872;SDS011;50750;51.636;4.948;2022-08-01T11:06:36;2.70;;;1.30;;
59872;SDS011;50750;51.636;4.948;2022-08-01T11:14:32;2.20;;;1.10;;
59872;SDS011;50750;51.636;4.948;2022-08-01T11:17:43;2.50;;;1.70;;
59872;SDS011;50750;51.636;4.948;2022-08-01T11:30:52;3.70;;;1.20;;
59872;SDS011;50750;51.636;4.948;2022-08-01T11:38:41;2.40;;;1.20;;
59872;SDS011;50750;51.636;4.948;2022-08-01T11:41:15;2.40;;;1.10;;
59872;SDS011;50750;51.636;4.948;2022-08-01T11:52:16;3.10;;;1.20;;
59872;SDS011;50750;51.636;4.948;2022-08-01T11:55:07;2.40;;;1.10;;
59872;SDS011;50750;51.636;4.948;2022-08-01T11:57:35;2.10;;;1.10;;
59872;SDS011;50750;51.636;4.948;2022-08-01T12:00:13;2.60;;;1.30;;
59872;SDS011;50750;51.636;4.948;2022-08-01T12:05:10;2.60;;;1.10;;
59872;SDS011;50750;51.636;4.948;2022-08-01T12:07:39;3.00;;;1.50;;
59872;SDS011;50750;51.636;4.948;2022-08-01T12:12:36;2.60;;;1.30;;
59872;SDS011;50750;51.636;4.948;2022-08-01T12:15:08;4.40;;;1.20;;
59872;SDS011;50750;51.636;4.948;2022-08-01T12:17:37;2.00;;;1.20;;
59872;SDS011;50750;51.636;4.948;2022-08-01T12:20:06;2.60;;;1.20;;
59872;SDS011;50750;51.636;4.948;2022-08-01T12:22:36;2.60;;;1.10;;
59872;SDS011;50750;51.636;4.948;2022-08-01T12:25:08;1.90;;;1.00;;
59872;SDS011;50750;51.636;4.948;2022-08-01T12:27:38;2.20;;;1.00;;
59872;SDS011;50750;51.636;4.948;2022-08-01T12:30:07;2.20;;;1.20;;
59872;SDS011;50750;51.636;4.948;2022-08-01T12:32:36;2.40;;;1.20;;
59872;SDS011;50750;51.636;4.948;2022-08-01T12:35:05;2.10;;;1.10;;
59872;SDS011;50750;51.636;4.948;2022-08-01T12:37:41;1.80;;;1.00;;
59872;SDS011;50750;51.636;4.948;2022-08-01T12:40:16;2.60;;;1.20;;
59872;SDS011;50750;51.636;4.948;2022-08-01T12:42:45;3.00;;;1.20;;
59872;SDS011;50750;51.636;4.948;2022-08-01T12:45:24;2.60;;;1.00;;
59872;SDS011;50750;51.636;4.948;2022-08-01T12:47:53;3.10;;;1.40;;
59872;SDS011;50750;51.636;4.948;2022-08-01T12:50:21;2.40;;;1.20;;
59872;SDS011;50750;51.636;4.948;2022-08-01T12:52:50;2.20;;;1.20;;
59872;SDS011;50750;51.636;4.948;2022-08-01T12:55:21;2.40;;;1.10;;
59872;SDS011;50750;51.636;4.948;2022-08-01T12:58:03;2.90;;;1.10;;
59872;SDS011;50750;51.636;4.948;2022-08-01T13:00:30;2.30;;;1.20;;
59872;SDS011;50750;51.636;4.948;2022-08-01T13:08:15;3.20;;;1.20;;
59872;SDS011;50750;51.636;4.948;2022-08-01T13:10:46;3.50;;;1.10;;
59872;SDS011;50750;51.636;4.948;2022-08-01T13:13:14;4.00;;;1.40;;
59872;SDS011;50750;51.636;4.948;2022-08-01T13:15:43;2.40;;;1.20;;
59872;SDS011;50750;51.636;4.948;2022-08-01T13:18:26;2.40;;;1.10;;
59872;SDS011;50750;51.636;4.948;2022-08-01T13:21:14;4.20;;;1.30;;
59872;SDS011;50750;51.636;4.948;2022-08-01T13:29:15;3.30;;;1.10;;
59872;SDS011;50750;51.636;4.948;2022-08-01T13:31:43;3.40;;;1.30;;
59872;SDS011;50750;51.636;4.948;2022-08-01T13:34:10;3.60;;;1.40;;
59872;SDS011;50750;51.636;4.948;2022-08-01T13:36:38;3.00;;;1.30;;
59872;SDS011;50750;51.636;4.948;2022-08-01T13:39:05;2.60;;;1.20;;
59872;SDS011;50750;51.636;4.948;2022-08-01T13:41:51;3.70;;;1.20;;
59872;SDS011;50750;51.636;4.948;2022-08-01T13:44:18;2.90;;;1.30;;
59872;SDS011;50750;51.636;4.948;2022-08-01T13:46:45;2.80;;;1.30;;
59872;SDS011;50750;51.636;4.948;2022-08-01T13:49:13;3.50;;;1.20;;
59872;SDS011;50750;51.636;4.948;2022-08-01T13:51:40;4.10;;;1.30;;
59872;SDS011;50750;51.636;4.948;2022-08-01T13:54:06;3.20;;;1.10;;
59872;SDS011;50750;51.636;4.948;2022-08-01T13:56:34;4.40;;;1.10;;
59872;SDS011;50750;51.636;4.948;2022-08-01T13:59:01;2.80;;;1.20;;
59872;SDS011;50750;51.636;4.948;2022-08-01T14:01:28;3.00;;;1.30;;
59872;SDS011;50750;51.636;4.948;2022-08-01T14:03:54;2.20;;;1.10;;
59872;SDS011;50750;51.636;4.948;2022-08-01T14:06:21;2.80;;;1.30;;
59872;SDS011;50750;51.636;4.948;2022-08-01T14:08:48;4.10;;;1.10;;
59872;SDS011;50750;51.636;4.948;2022-08-01T14:11:16;2.80;;;1.10;;
59872;SDS011;50750;51.636;4.948;2022-08-01T14:13:43;3.20;;;1.30;;
59872;SDS011;50750;51.636;4.948;2022-08-01T14:16:10;3.10;;;1.20;;
59872;SDS011;50750;51.636;4.948;2022-08-01T14:18:36;4.00;;;1.40;;
59872;SDS011;50750;51.636;4.948;2022-08-01T14:21:03;2.80;;;1.40;;
59872;SDS011;50750;51.636;4.948;2022-08-01T14:23:29;2.50;;;1.30;;
59872;SDS011;50750;51.636;4.948;2022-08-01T14:25:56;2.30;;;1.10;;
59872;SDS011;50750;51.636;4.948;2022-08-01T14:28:23;3.10;;;1.40;;
59872;SDS011;50750;51.636;4.948;2022-08-01T14:30:50;3.00;;;1.40;;
59872;SDS011;50750;51.636;4.948;2022-08-01T14:33:17;4.20;;;1.40;;
59872;SDS011;50750;51.636;4.948;2022-08-01T14:35:43;3.60;;;1.50;;
59872;SDS011;50750;51.636;4.948;2022-08-01T14:38:10;2.80;;;1.20;;
59872;SDS011;50750;51.636;4.948;2022-08-01T14:40:37;3.50;;;1.20;;
59872;SDS011;50750;51.636;4.948;2022-08-01T14:43:03;4.30;;;1.40;;
59872;SDS011;50750;51.636;4.948;2022-08-01T14:45:30;2.70;;;1.20;;
59872;SDS011;50750;51.636;4.948;2022-08-01T14:47:56;2.10;;;1.30;;
59872;SDS011;50750;51.636;4.948;2022-08-01T14:50:23;2.10;;;1.00;;
59872;SDS011;50750;51.636;4.948;2022-08-01T14:52:53;3.70;;;1.20;;
59872;SDS011;50750;51.636;4.948;2022-08-01T14:55:20;2.80;;;1.30;;
59872;SDS011;50750;51.636;4.948;2022-08-01T14:57:49;4.10;;;1.40;;
59872;SDS011;50750;51.636;4.948;2022-08-01T15:00:16;2.60;;;1.30;;
59872;SDS011;50750;51.636;4.948;2022-08-01T15:02:43;2.80;;;1.30;;
59872;SDS011;50750;51.636;4.948;2022-08-01T15:05:10;2.10;;;1.10;;
59872;SDS011;50750;51.636;4.948;2022-08-01T15:07:37;2.40;;;1.10;;
59872;SDS011;50750;51.636;4.948;2022-08-01T15:10:04;2.60;;;1.30;;
59872;SDS011;50750;51.636;4.948;2022-08-01T15:12:32;2.20;;;1.10;;
59872;SDS011;50750;51.636;4.948;2022-08-01T15:15:00;3.20;;;1.20;;
59872;SDS011;50750;51.636;4.948;2022-08-01T15:17:27;1.90;;;1.10;;
59872;SDS011;50750;51.636;4.948;2022-08-01T15:19:57;3.40;;;1.20;;
59872;SDS011;50750;51.636;4.948;2022-08-01T15:22:26;2.80;;;1.10;;
59872;SDS011;50750;51.636;4.948;2022-08-01T15:24:54;3.40;;;1.20;;
59872;SDS011;50750;51.636;4.948;2022-08-01T15:27:23;3.50;;;1.20;;
59872;SDS011;50750;51.636;4.948;2022-08-01T15:29:50;2.10;;;1.10;;
59872;SDS011;50750;51.636;4.948;2022-08-01T15:32:17;2.50;;;1.20;;
59872;SDS011;50750;51.636;4.948;2022-08-01T15:34:44;2.50;;;1.20;;
59872;SDS011;50750;51.636;4.948;2022-08-01T15:37:11;2.10;;;1.10;;
59872;SDS011;50750;51.636;4.948;2022-08-01T15:39:38;2.50;;;1.40;;
59872;SDS011;50750;51.636;4.948;2022-08-01T15:42:06;2.60;;;1.10;;
59872;SDS011;50750;51.636;4.948;2022-08-01T15:44:36;2.30;;;1.30;;
59872;SDS011;50750;51.636;4.948;2022-08-01T15:47:03;2.30;;;1.20;;
59872;SDS011;50750;51.636;4.948;2022-08-01T15:49:30;2.20;;;1.10;;
59872;SDS011;50750;51.636;4.948;2022-08-01T15:51:57;1.90;;;1.20;;
59872;SDS011;50750;51.636;4.948;2022-08-01T15:54:24;2.90;;;1.10;;
59872;SDS011;50750;51.636;4.948;2022-08-01T15:56:50;3.30;;;1.40;;
59872;SDS011;50750;51.636;4.948;2022-08-01T15:59:17;1.70;;;1.00;;
59872;SDS011;50750;51.636;4.948;2022-08-01T16:01:44;2.30;;;1.10;;
59872;SDS011;50750;51.636;4.948;2022-08-01T16:04:11;3.00;;;0.90;;
59872;SDS011;50750;51.636;4.948;2022-08-01T16:06:37;2.00;;;1.20;;
59872;SDS011;50750;51.636;4.948;2022-08-01T16:09:04;2.60;;;1.10;;
59872;SDS011;50750;51.636;4.948;2022-08-01T16:11:31;2.80;;;1.30;;
59872;SDS011;50750;51.636;4.948;2022-08-01T16:13:58;2.40;;;1.20;;
59872;SDS011;50750;51.636;4.948;2022-08-01T16:16:25;2.10;;;1.10;;
59872;SDS011;50750;51.636;4.948;2022-08-01T16:18:52;2.40;;;1.10;;